createdAt,value
2023-03-29T00:00:38.298Z,6.8116
2023-03-29T00:02:41.472Z,6.6589
2023-03-29T00:03:43.047Z,6.4741
2023-03-29T00:04:43.004Z,6.4117
2023-03-29T00:05:43.039Z,6.2880
2023-03-29T00:06:43.049Z,6.1597
2023-03-29T00:07:44.268Z,6.0724
2023-03-29T00:08:44.394Z,6.0539
2023-03-29T00:09:45.642Z,6.0000
2023-03-29T00:10:45.732Z,5.9774
2023-03-29T00:11:46.953Z,6.0286
2023-03-29T00:12:48.283Z,5.9409
2023-03-29T00:13:49.526Z,6.1909
2023-03-29T00:14:50.929Z,6.3936
2023-03-29T00:15:52.111Z,6.3080
2023-03-29T00:16:53.690Z,6.3724
2023-03-29T00:17:55.082Z,6.5561
2023-03-29T00:18:55.172Z,6.4832
2023-03-29T00:19:56.427Z,6.5328
2023-03-29T00:20:57.813Z,6.6289
2023-03-29T00:21:59.037Z,6.6321
2023-03-29T00:22:59.476Z,6.6630
2023-03-29T00:24:00.674Z,6.6800
2023-03-29T00:25:00.714Z,6.7248
2023-03-29T00:26:02.031Z,6.7861
2023-03-29T00:27:03.565Z,6.8002
2023-03-29T00:28:04.854Z,6.5893
2023-03-29T00:29:06.219Z,6.5102
2023-03-29T00:30:07.429Z,6.8195
2023-03-29T00:31:08.898Z,6.6767
2023-03-29T00:32:10.207Z,6.9460
2023-03-29T00:33:10.357Z,6.9865
2023-03-29T00:34:11.622Z,7.3076
2023-03-29T00:35:11.631Z,7.5142
2023-03-29T00:36:12.907Z,7.1803
2023-03-29T00:37:12.974Z,7.0040
2023-03-29T00:38:14.181Z,7.1310
2023-03-29T00:39:15.492Z,7.0914
2023-03-29T00:40:16.803Z,7.2692
2023-03-29T00:41:17.186Z,7.0146
2023-03-29T00:42:18.386Z,6.9788
2023-03-29T00:43:18.479Z,7.1335
2023-03-29T00:44:19.791Z,7.4574
2023-03-29T00:45:21.228Z,7.4479
2023-03-29T00:46:22.659Z,7.5662
2023-03-29T00:47:22.957Z,7.4044
2023-03-29T00:48:24.369Z,7.2680
2023-03-29T00:49:24.369Z,7.3409
2023-03-29T00:50:25.571Z,7.2892
2023-03-29T00:51:26.956Z,7.1851
2023-03-29T00:52:28.231Z,7.1342
2023-03-29T00:53:29.679Z,7.0045
2023-03-29T00:54:30.959Z,7.0076
2023-03-29T00:55:32.392Z,7.2031
2023-03-29T00:56:32.488Z,7.2207
2023-03-29T00:57:34.012Z,7.3998
2023-03-29T00:58:35.246Z,7.4823
2023-03-29T00:59:36.724Z,7.5230
2023-03-29T01:00:38.048Z,7.2679
2023-03-29T01:01:38.179Z,7.2811
2023-03-29T01:02:38.456Z,7.5608
2023-03-29T01:03:40.163Z,7.7273
2023-03-29T01:04:41.444Z,7.6841
2023-03-29T01:05:42.750Z,7.7233
2023-03-29T01:06:43.864Z,7.7226
2023-03-29T01:07:44.524Z,7.6555
2023-03-29T01:08:45.745Z,7.4967
2023-03-29T01:09:45.852Z,7.6395
2023-03-29T01:10:47.126Z,7.6396
2023-03-29T01:11:48.483Z,7.5834
2023-03-29T01:12:49.715Z,7.5529
2023-03-29T01:13:51.205Z,7.4636
2023-03-29T01:14:52.484Z,7.4143
2023-03-29T01:15:53.932Z,7.4018
2023-03-29T01:16:55.338Z,7.4286
2023-03-29T01:17:55.683Z,7.2825
2023-03-29T01:18:55.798Z,7.3761
2023-03-29T01:29:06.493Z,7.5757
2023-03-29T01:30:07.869Z,7.5102
2023-03-29T01:31:09.164Z,7.4508
2023-03-29T01:32:09.230Z,7.6651
2023-03-29T01:33:10.549Z,7.6850
2023-03-29T01:34:11.913Z,7.7704
2023-03-29T01:35:11.990Z,7.6663
2023-03-29T01:36:13.538Z,7.5380
2023-03-29T01:37:14.756Z,7.4520
2023-03-29T01:38:16.127Z,7.5344
2023-03-29T01:39:17.396Z,7.3728
2023-03-29T01:40:18.736Z,7.4492
2023-03-29T01:41:20.038Z,7.7696
2023-03-29T01:42:21.529Z,7.7618
2023-03-29T01:43:23.553Z,7.6317
2023-03-29T01:44:23.385Z,7.4776
2023-03-29T01:45:24.715Z,7.5152
2023-03-29T01:46:24.817Z,7.5129
2023-03-29T01:47:24.892Z,7.5398
2023-03-29T01:48:26.106Z,7.5236
2023-03-29T01:49:27.413Z,7.4933
2023-03-29T01:50:28.627Z,7.4533
2023-03-29T01:51:29.950Z,7.2992
2023-03-29T01:52:31.202Z,7.3111
2023-03-29T01:53:31.245Z,7.2587
2023-03-29T01:54:32.612Z,7.1818
2023-03-29T02:04:41.706Z,7.0452
2023-03-29T02:05:41.763Z,7.2162
2023-03-29T02:06:42.986Z,7.2763
2023-03-29T02:07:44.301Z,7.1267
2023-03-29T02:08:45.526Z,7.1877
2023-03-29T02:09:45.589Z,7.2834
2023-03-29T02:10:45.714Z,7.2461
2023-03-29T02:11:47.163Z,7.1787
2023-03-29T02:12:48.534Z,7.0794
2023-03-29T02:13:48.471Z,7.2705
2023-03-29T02:14:48.550Z,7.3541
2023-03-29T02:15:50.041Z,7.2573
2023-03-29T02:16:50.082Z,7.0435
2023-03-29T02:17:51.428Z,6.9052
2023-03-29T02:18:51.702Z,7.0134
2023-03-29T02:19:53.069Z,7.1465
2023-03-29T02:20:53.159Z,7.0502
2023-03-29T02:21:53.144Z,6.8926
2023-03-29T02:22:54.438Z,6.7690
2023-03-29T02:28:59.466Z,7.2245
2023-03-29T02:29:59.500Z,7.0295
2023-03-29T02:31:01.045Z,7.1329
2023-03-29T02:32:01.704Z,7.1281
2023-03-29T02:33:01.777Z,7.2577
2023-03-29T02:34:01.870Z,7.1951
2023-03-29T02:35:01.908Z,7.2756
2023-03-29T02:36:02.023Z,7.2560
2023-03-29T02:37:02.130Z,7.2438
2023-03-29T02:38:03.530Z,7.1249
2023-03-29T02:39:03.684Z,7.1165
2023-03-29T02:40:04.986Z,7.2316
2023-03-29T02:41:06.493Z,7.2514
2023-03-29T02:42:07.785Z,7.4056
2023-03-29T02:44:09.035Z,7.1648
2023-03-29T02:45:10.376Z,6.9566
2023-03-29T02:46:10.472Z,6.7739
2023-03-29T02:47:10.558Z,6.8187
2023-03-29T02:48:10.669Z,6.9486
2023-03-29T02:49:12.038Z,6.9293
2023-03-29T02:50:13.702Z,6.8547
2023-03-29T02:51:15.916Z,7.0176
2023-03-29T02:52:15.922Z,6.9587
2023-03-29T02:53:15.955Z,7.1087
2023-03-29T02:54:17.338Z,7.2772
2023-03-29T02:55:17.423Z,7.5198
2023-03-29T02:56:18.638Z,7.1402
2023-03-29T02:57:20.221Z,6.8672
2023-03-29T02:58:20.236Z,6.8517
2023-03-29T02:59:21.580Z,6.8482
2023-03-29T03:00:21.672Z,6.7592
2023-03-29T03:01:23.092Z,6.9271
2023-03-29T03:02:23.335Z,6.6859
2023-03-29T03:03:23.954Z,6.6503
2023-03-29T03:04:24.308Z,6.8872
2023-03-29T03:05:25.614Z,7.0849
2023-03-29T03:06:25.752Z,7.0382
2023-03-29T03:07:27.024Z,7.2213
2023-03-29T03:09:29.787Z,7.3373
2023-03-29T03:11:31.124Z,7.1213
2023-03-29T03:12:31.477Z,7.1585
2023-03-29T03:13:32.753Z,7.3301
2023-03-29T03:14:33.101Z,7.2286
2023-03-29T03:15:34.401Z,7.2033
2023-03-29T03:16:34.865Z,7.2523
2023-03-29T03:17:34.856Z,6.9998
2023-03-29T03:18:36.149Z,6.9924
2023-03-29T03:19:36.286Z,7.1155
2023-03-29T03:20:37.553Z,7.0188
2023-03-29T03:21:38.538Z,7.1494
2023-03-29T03:22:39.867Z,6.9896
2023-03-29T03:23:39.981Z,6.9762
2023-03-29T03:27:42.479Z,6.9989
2023-03-29T03:28:42.539Z,7.0028
2023-03-29T03:29:43.922Z,7.1138
2023-03-29T03:30:44.086Z,7.2663
2023-03-29T03:31:44.191Z,8.0087
2023-03-29T03:32:44.304Z,7.9145
2023-03-29T03:33:45.638Z,7.5110
2023-03-29T03:34:47.182Z,7.4923
2023-03-29T03:35:48.512Z,7.4336
2023-03-29T03:36:48.633Z,7.4794
2023-03-29T03:37:49.942Z,7.2264
2023-03-29T03:38:51.442Z,7.0327
2023-03-29T03:39:52.731Z,7.2110
2023-03-29T03:41:55.400Z,7.4061
2023-03-29T03:42:55.759Z,7.2466
2023-03-29T03:43:56.277Z,7.0954
2023-03-29T03:44:56.324Z,7.0898
2023-03-29T03:45:56.586Z,7.2116
2023-03-29T03:46:57.090Z,7.1424
2023-03-29T03:47:57.200Z,7.1639
2023-03-29T03:48:57.383Z,6.8297
2023-03-29T03:49:57.417Z,6.7541
2023-03-29T03:50:57.441Z,6.6383
2023-03-29T03:51:58.788Z,6.6789
2023-03-29T03:52:58.928Z,6.6296
2023-03-29T03:54:00.250Z,6.7733
2023-03-29T03:55:01.789Z,6.5015
2023-03-29T03:56:03.148Z,6.4784
2023-03-29T03:57:04.825Z,6.6591
2023-03-29T03:58:06.109Z,6.7035
2023-03-29T03:59:06.341Z,6.6228
2023-03-29T04:00:07.692Z,6.5678
2023-03-29T04:01:07.680Z,7.0972
2023-03-29T04:02:07.824Z,7.2803
2023-03-29T04:03:08.093Z,7.2848
2023-03-29T04:04:09.167Z,7.1777
2023-03-29T04:05:09.459Z,6.9550
2023-03-29T04:06:09.495Z,6.7861
2023-03-29T04:07:10.744Z,7.1510
2023-03-29T04:08:12.158Z,7.3712
2023-03-29T04:09:13.480Z,7.0430
2023-03-29T04:10:13.640Z,6.9078
2023-03-29T04:11:14.909Z,6.8131
2023-03-29T04:12:15.031Z,6.8067
2023-03-29T04:13:16.337Z,7.4528
2023-03-29T04:14:17.840Z,7.5549
2023-03-29T04:15:17.855Z,7.3519
2023-03-29T04:16:18.067Z,7.2770
2023-03-29T04:17:18.189Z,7.1541
2023-03-29T04:18:18.770Z,7.5279
2023-03-29T04:19:20.085Z,7.3062
2023-03-29T04:20:20.389Z,7.3263
2023-03-29T04:21:21.659Z,7.3566
2023-03-29T04:22:21.915Z,7.2616
2023-03-29T04:34:35.111Z,7.4975
2023-03-29T04:35:35.523Z,7.6570
2023-03-29T04:36:36.744Z,7.5267
2023-03-29T04:37:38.372Z,7.3749
2023-03-29T04:38:38.367Z,7.2489
2023-03-29T04:39:38.593Z,7.2725
2023-03-29T04:40:38.681Z,7.4908
2023-03-29T04:41:40.040Z,7.3155
2023-03-29T04:42:40.082Z,7.3061
2023-03-29T04:43:41.452Z,7.5073
2023-03-29T04:44:42.981Z,7.5569
2023-03-29T04:45:43.017Z,7.4456
2023-03-29T04:46:43.247Z,7.6699
2023-03-29T04:47:43.281Z,7.4877
2023-03-29T04:48:43.308Z,7.3632
2023-03-29T04:49:43.433Z,7.2151
2023-03-29T04:50:44.674Z,7.3311
2023-03-29T04:51:44.998Z,7.5999
2023-03-29T04:52:46.546Z,7.9383
2023-03-29T04:53:46.669Z,8.0282
2023-03-29T04:54:47.978Z,8.0681
2023-03-29T04:55:48.089Z,8.3012
2023-03-29T04:56:49.431Z,8.3846
2023-03-29T04:57:49.512Z,8.4251
2023-03-29T04:58:50.772Z,8.3147
2023-03-29T04:59:52.113Z,8.3045
2023-03-29T05:00:52.280Z,8.4422
2023-03-29T05:01:52.348Z,8.3429
2023-03-29T05:02:52.650Z,8.2846
2023-03-29T05:03:52.761Z,8.2591
2023-03-29T05:04:53.157Z,8.3005
2023-03-29T05:05:53.240Z,8.3410
2023-03-29T05:06:53.422Z,8.4017
2023-03-29T05:07:54.833Z,8.3940
2023-03-29T05:08:55.226Z,8.3098
2023-03-29T05:09:55.460Z,8.4003
2023-03-29T05:10:55.773Z,8.5505
2023-03-29T05:11:55.983Z,8.6358
2023-03-29T05:12:56.097Z,8.6107
2023-03-29T05:13:56.218Z,8.6212
2023-03-29T05:14:56.463Z,8.5155
2023-03-29T05:15:57.360Z,8.3238
2023-03-29T05:16:57.594Z,8.0872
2023-03-29T05:17:58.186Z,8.2961
2023-03-29T05:18:58.585Z,8.5843
2023-03-29T05:19:59.171Z,8.5343
2023-03-29T05:20:59.878Z,8.4546
2023-03-29T05:22:00.594Z,8.5043
2023-03-29T05:23:00.642Z,8.5175
2023-03-29T05:24:01.941Z,8.3788
2023-03-29T05:25:02.110Z,8.3925
2023-03-29T05:26:03.451Z,8.3680
2023-03-29T05:27:03.610Z,8.2914
2023-03-29T05:28:03.679Z,8.2362
2023-03-29T05:29:03.640Z,8.2440
2023-03-29T05:30:03.777Z,8.3637
2023-03-29T05:31:04.273Z,8.3273
2023-03-29T05:32:04.853Z,8.4350
2023-03-29T05:33:04.885Z,8.4916
2023-03-29T05:34:06.363Z,8.4384
2023-03-29T05:35:06.472Z,8.5638
2023-03-29T05:36:06.823Z,8.5885
2023-03-29T05:37:07.086Z,8.5138
2023-03-29T05:38:07.248Z,8.0474
2023-03-29T05:39:07.323Z,8.0588
2023-03-29T05:40:08.127Z,8.0367
2023-03-29T05:41:09.284Z,8.3229
2023-03-29T05:42:09.579Z,8.3876
2023-03-29T05:43:09.458Z,8.3684
2023-03-29T05:44:09.624Z,8.4040
2023-03-29T05:46:10.862Z,8.4540
2023-03-29T05:47:11.214Z,8.2554
2023-03-29T05:48:11.290Z,8.2239
2023-03-29T05:49:11.546Z,8.2710
2023-03-29T05:50:11.678Z,8.1911
2023-03-29T05:51:12.552Z,8.2760
2023-03-29T05:52:12.717Z,8.2614
2023-03-29T05:53:12.874Z,8.2726
2023-03-29T05:54:14.248Z,8.2003
2023-03-29T05:55:14.381Z,8.1228
2023-03-29T05:56:14.494Z,8.0358
2023-03-29T05:57:14.706Z,8.0933
2023-03-29T05:58:14.870Z,8.1061
2023-03-29T05:59:15.033Z,8.0418
2023-03-29T06:00:15.058Z,8.1287
2023-03-29T06:01:15.810Z,8.0573
2023-03-29T06:02:15.952Z,8.0865
2023-03-29T06:03:22.553Z,8.0997
2023-03-29T06:04:23.155Z,8.0352
2023-03-29T06:05:23.331Z,8.1265
2023-03-29T06:06:24.783Z,8.1676
2023-03-29T06:07:24.939Z,8.0784
2023-03-29T06:08:25.071Z,8.0900
2023-03-29T06:09:25.355Z,8.0753
2023-03-29T06:16:29.731Z,8.5108
2023-03-29T06:17:30.226Z,8.4871
2023-03-29T06:18:30.814Z,8.4218
2023-03-29T06:19:30.843Z,8.6623
2023-03-29T06:20:30.931Z,8.7337
2023-03-29T06:21:31.127Z,8.9537
2023-03-29T06:22:32.498Z,8.9462
2023-03-29T06:23:32.572Z,9.0560
2023-03-29T06:24:33.023Z,9.0764
2023-03-29T06:25:34.114Z,9.0363
2023-03-29T06:26:34.399Z,9.0059
2023-03-29T06:27:34.497Z,8.9559
2023-03-29T06:28:34.540Z,9.1110
2023-03-29T06:29:34.786Z,8.9911
2023-03-29T06:30:35.747Z,8.9644
2023-03-29T06:31:36.531Z,8.9155
2023-03-29T06:32:36.874Z,9.0133
2023-03-29T06:33:37.047Z,8.8651
2023-03-29T06:34:38.576Z,8.9569
2023-03-29T06:35:37.599Z,9.2201
2023-03-29T06:36:37.692Z,9.0537
2023-03-29T06:37:37.910Z,9.1208
2023-03-29T06:38:37.927Z,9.1916
2023-03-29T06:39:38.173Z,9.1990
2023-03-29T06:40:38.203Z,9.1920
2023-03-29T06:41:38.231Z,9.2271
2023-03-29T06:42:38.379Z,9.2867
2023-03-29T06:43:38.393Z,9.2519
2023-03-29T06:44:38.414Z,9.3102
2023-03-29T06:45:38.668Z,9.4073
2023-03-29T06:46:39.019Z,9.5048
2023-03-29T06:47:39.086Z,9.4031
2023-03-29T06:48:39.362Z,9.4444
2023-03-29T06:49:39.387Z,9.3706
2023-03-29T06:50:39.493Z,9.4034
2023-03-29T06:51:39.532Z,9.4703
2023-03-29T06:52:39.731Z,9.4886
2023-03-29T06:53:41.104Z,9.3883
2023-03-29T06:54:41.260Z,9.2529
2023-03-29T06:55:41.661Z,9.4319
2023-03-29T06:56:43.121Z,9.4182
2023-03-29T06:57:43.635Z,9.4263
2023-03-29T06:58:43.681Z,9.4777
2023-03-29T06:59:43.955Z,9.5684
2023-03-29T07:00:44.403Z,9.5829
2023-03-29T07:01:44.854Z,9.6276
2023-03-29T07:02:44.906Z,9.5542
2023-03-29T07:03:46.732Z,9.5582
2023-03-29T07:04:47.149Z,9.6375
2023-03-29T07:05:47.428Z,9.6714
2023-03-29T07:06:47.476Z,9.6293
2023-03-29T07:07:47.764Z,9.5761
2023-03-29T07:08:47.956Z,9.5163
2023-03-29T07:09:48.006Z,9.5401
2023-03-29T07:10:48.121Z,9.0080
2023-03-29T07:11:48.332Z,8.6306
2023-03-29T07:12:48.516Z,8.4128
2023-03-29T07:13:49.043Z,8.4655
2023-03-29T07:14:49.124Z,8.4085
2023-03-29T07:15:49.242Z,8.2037
2023-03-29T07:16:49.326Z,7.8760
2023-03-29T07:17:49.548Z,7.8905
2023-03-29T07:18:49.565Z,7.7710
2023-03-29T07:19:49.636Z,7.6200
2023-03-29T07:20:49.815Z,7.6874
2023-03-29T07:21:49.852Z,7.8220
2023-03-29T07:22:49.862Z,7.7971
2023-03-29T07:23:50.079Z,8.0461
2023-03-29T07:24:50.085Z,8.1872
2023-03-29T07:25:50.114Z,8.2902
2023-03-29T07:27:03.261Z,8.4115
2023-03-29T07:27:50.684Z,8.3376
2023-03-29T07:28:50.730Z,8.1909
2023-03-29T07:29:50.877Z,8.2818
2023-03-29T07:30:51.569Z,8.3978
2023-03-29T07:31:51.778Z,8.1879
2023-03-29T07:32:52.234Z,8.1994
2023-03-29T07:33:53.332Z,8.4417
2023-03-29T07:34:53.446Z,8.2741
2023-03-29T07:35:53.518Z,8.4154
2023-03-29T07:36:53.781Z,8.4518
2023-03-29T07:37:53.781Z,8.3192
2023-03-29T07:38:56.301Z,8.3931
2023-03-29T07:39:55.289Z,8.4567
2023-03-29T07:40:55.504Z,8.4230
2023-03-29T07:41:55.532Z,8.4622
2023-03-29T07:42:55.561Z,8.3800
2023-03-29T07:43:55.718Z,9.0103
2023-03-29T07:44:55.734Z,8.9312
2023-03-29T07:45:55.989Z,8.6673
2023-03-29T07:46:56.170Z,8.7193
2023-03-29T07:47:56.478Z,8.7266
2023-03-29T07:48:56.658Z,8.9031
2023-03-29T07:49:57.000Z,9.3488
2023-03-29T07:50:57.082Z,9.0139
2023-03-29T07:51:57.848Z,9.0190
2023-03-29T07:52:58.126Z,8.8301
2023-03-29T07:53:58.255Z,8.8074
2023-03-29T07:54:58.495Z,8.7163
2023-03-29T07:55:58.590Z,8.8621
2023-03-29T07:56:58.826Z,9.0953
2023-03-29T07:57:59.167Z,9.0585
2023-03-29T07:58:59.321Z,9.2161
2023-03-29T07:59:59.548Z,9.2617
2023-03-29T08:00:59.772Z,9.4549
2023-03-29T08:02:00.918Z,9.4273
2023-03-29T08:03:01.040Z,9.2582
2023-03-29T08:04:01.414Z,9.0395
2023-03-29T08:05:01.983Z,9.0985
2023-03-29T08:06:02.585Z,9.1307
2023-03-29T08:07:02.730Z,9.0959
2023-03-29T08:08:02.830Z,9.0456
2023-03-29T08:09:03.122Z,9.1176
2023-03-29T08:10:03.314Z,9.2500
2023-03-29T08:11:03.687Z,9.2980
2023-03-29T08:12:04.020Z,9.4273
2023-03-29T08:13:04.089Z,9.5799
2023-03-29T08:14:04.248Z,9.3079
2023-03-29T08:15:04.432Z,8.9442
2023-03-29T08:16:04.842Z,8.9364
2023-03-29T08:17:05.130Z,8.9371
2023-03-29T08:18:05.904Z,9.0295
2023-03-29T08:19:06.711Z,9.0894
2023-03-29T08:20:07.307Z,8.8730
2023-03-29T08:21:07.901Z,8.8468
2023-03-29T08:22:07.924Z,8.7838
2023-03-29T08:23:08.234Z,8.9853
2023-03-29T08:24:08.507Z,9.1890
2023-03-29T08:25:09.779Z,9.2442
2023-03-29T08:26:09.924Z,9.0900
2023-03-29T08:27:10.251Z,8.9136
2023-03-29T08:28:10.387Z,8.9291
2023-03-29T08:29:10.485Z,8.8909
2023-03-29T08:30:10.742Z,8.9140
2023-03-29T08:31:11.417Z,9.0644
2023-03-29T08:32:11.654Z,9.1906
2023-03-29T08:33:12.058Z,9.3254
2023-03-29T08:34:12.501Z,9.3767
2023-03-29T08:35:12.715Z,9.5314
2023-03-29T08:36:13.044Z,9.3627
2023-03-29T08:37:13.140Z,9.4354
2023-03-29T08:38:13.333Z,9.5883
2023-03-29T08:39:13.646Z,9.5916
2023-03-29T08:40:13.712Z,9.5705
2023-03-29T08:41:14.553Z,9.4849
2023-03-29T08:42:14.585Z,9.6430
2023-03-29T08:43:14.662Z,9.8352
2023-03-29T08:44:14.938Z,10.0277
2023-03-29T08:45:15.006Z,10.2053
2023-03-29T08:46:15.317Z,10.1506
2023-03-29T08:47:16.202Z,10.2583
2023-03-29T08:48:16.663Z,10.2279
2023-03-29T08:49:16.830Z,10.0227
2023-03-29T08:50:16.952Z,10.1947
2023-03-29T08:51:18.016Z,10.3011
2023-03-29T08:52:18.174Z,10.1036
2023-03-29T08:53:19.409Z,9.9122
2023-03-29T08:54:19.569Z,10.3351
2023-03-29T08:55:19.904Z,10.4943
2023-03-29T08:56:20.051Z,10.4444
2023-03-29T08:57:20.710Z,10.3697
2023-03-29T08:58:20.860Z,10.6250
2023-03-29T08:59:21.318Z,10.5957
2023-03-29T09:00:21.406Z,10.7958
2023-03-29T09:01:21.521Z,10.8752
2023-03-29T09:02:21.979Z,10.8152
2023-03-29T09:03:22.492Z,10.8096
2023-03-29T09:04:22.781Z,11.0087
2023-03-29T09:05:22.947Z,11.0767
2023-03-29T09:06:23.212Z,11.0225
2023-03-29T09:07:26.463Z,11.1836
2023-03-29T09:08:24.041Z,11.0774
2023-03-29T09:09:25.004Z,11.3238
2023-03-29T09:10:25.210Z,11.0626
2023-03-29T09:11:25.512Z,11.1328
2023-03-29T09:12:25.612Z,11.1655
2023-03-29T09:13:25.935Z,11.0468
2023-03-29T09:14:26.091Z,11.0686
2023-03-29T09:15:26.395Z,11.3045
2023-03-29T09:16:26.486Z,11.0150
2023-03-29T09:17:27.128Z,10.8548
2023-03-29T09:18:27.464Z,10.7642
2023-03-29T09:19:27.659Z,10.8880
2023-03-29T09:20:28.010Z,10.4763
2023-03-29T09:21:28.217Z,10.2418
2023-03-29T09:22:28.297Z,10.4501
2023-03-29T09:23:28.542Z,10.6037
2023-03-29T09:24:28.881Z,10.6899
2023-03-29T09:25:29.094Z,10.5245
2023-03-29T09:26:29.490Z,10.3776
2023-03-29T09:27:29.750Z,10.6341
2023-03-29T09:28:29.907Z,10.9090
2023-03-29T09:29:31.238Z,10.7664
2023-03-29T09:30:31.372Z,10.7772
2023-03-29T09:31:31.817Z,10.8117
2023-03-29T09:32:31.961Z,10.8482
2023-03-29T09:33:32.216Z,10.9265
2023-03-29T09:34:32.324Z,10.4935
2023-03-29T09:35:32.463Z,10.4281
2023-03-29T09:36:32.758Z,10.2818
2023-03-29T09:37:32.869Z,10.2989
2023-03-29T09:38:33.221Z,10.2339
2023-03-29T09:39:33.237Z,10.3436
2023-03-29T09:40:33.359Z,10.3774
2023-03-29T09:41:33.603Z,10.5101
2023-03-29T09:42:33.717Z,10.5356
2023-03-29T09:43:33.768Z,10.5395
2023-03-29T09:44:33.976Z,10.5520
2023-03-29T09:45:34.121Z,10.5666
2023-03-29T09:46:34.520Z,10.5245
2023-03-29T09:47:34.658Z,10.5546
2023-03-29T09:48:35.251Z,10.8865
2023-03-29T09:49:35.356Z,10.9458
2023-03-29T09:50:35.918Z,10.9162
2023-03-29T09:51:36.007Z,10.9659
2023-03-29T09:52:36.315Z,10.9502
2023-03-29T09:53:36.485Z,11.0344
2023-03-29T09:54:36.809Z,10.8656
2023-03-29T09:55:37.073Z,11.1316
2023-03-29T09:56:37.338Z,11.0364
2023-03-29T09:57:37.525Z,10.8709
2023-03-29T09:58:37.894Z,10.8521
2023-03-29T09:59:38.017Z,10.9922
2023-03-29T10:00:38.141Z,11.4429
2023-03-29T10:01:38.794Z,11.5475
2023-03-29T10:02:39.302Z,11.7854
2023-03-29T10:03:39.529Z,11.6028
2023-03-29T10:04:39.994Z,11.2790
2023-03-29T10:05:40.122Z,11.5855
2023-03-29T10:06:40.214Z,11.6256
2023-03-29T10:07:40.434Z,11.4305
2023-03-29T10:08:41.838Z,11.5225
2023-03-29T10:09:42.152Z,11.9556
2023-03-29T10:10:42.567Z,11.5519
2023-03-29T10:11:42.893Z,11.7867
2023-03-29T10:12:43.265Z,12.3063
2023-03-29T10:13:43.366Z,11.8334
2023-03-29T10:14:43.532Z,12.0890
2023-03-29T10:15:44.550Z,12.5011
2023-03-29T10:16:44.775Z,12.7653
2023-03-29T10:17:45.143Z,11.9077
2023-03-29T10:18:45.370Z,12.1134
2023-03-29T10:19:45.650Z,12.2157
2023-03-29T10:20:45.854Z,12.1834
2023-03-29T10:21:46.156Z,12.6164
2023-03-29T10:22:46.300Z,13.3629
2023-03-29T10:23:46.763Z,12.7116
2023-03-29T10:24:46.862Z,12.7970
2023-03-29T10:25:47.135Z,12.8421
2023-03-29T10:26:47.320Z,12.7324
2023-03-29T10:27:47.827Z,12.6151
2023-03-29T10:28:48.049Z,12.4137
2023-03-29T10:29:48.413Z,12.5317
2023-03-29T10:30:48.690Z,12.8356
2023-03-29T10:31:49.257Z,12.8142
2023-03-29T10:32:49.804Z,12.8358
2023-03-29T10:33:50.038Z,12.8683
2023-03-29T10:34:50.515Z,13.1861
2023-03-29T10:35:50.738Z,13.2987
2023-03-29T10:36:51.103Z,13.3578
2023-03-29T10:37:51.581Z,13.6892
2023-03-29T10:38:52.004Z,15.0972
2023-03-29T10:39:52.292Z,14.3843
2023-03-29T10:40:52.723Z,14.0290
2023-03-29T10:41:53.114Z,14.8224
2023-03-29T10:42:53.226Z,15.6264
2023-03-29T10:43:54.376Z,14.9819
2023-03-29T10:44:54.835Z,13.2565
2023-03-29T10:45:55.522Z,13.1160
2023-03-29T10:46:56.782Z,12.9844
2023-03-29T10:47:57.117Z,13.6721
2023-03-29T10:48:57.520Z,13.2625
2023-03-29T10:49:58.652Z,13.0280
2023-03-29T10:50:59.032Z,14.2121
2023-03-29T10:51:59.219Z,16.1491
2023-03-29T10:52:59.806Z,15.0966
2023-03-29T10:54:00.048Z,13.7404
2023-03-29T10:55:00.563Z,13.4284
2023-03-29T10:56:00.757Z,12.8824
2023-03-29T10:57:01.139Z,12.6510
2023-03-29T10:58:01.588Z,12.6981
2023-03-29T10:59:01.811Z,13.1879
2023-03-29T11:00:02.265Z,12.8317
2023-03-29T11:01:02.778Z,12.7016
2023-03-29T11:02:03.539Z,12.6543
2023-03-29T11:03:04.236Z,12.5662
2023-03-29T11:04:05.488Z,12.6832
2023-03-29T11:05:06.067Z,12.4967
2023-03-29T11:06:06.441Z,12.5537
2023-03-29T11:07:06.858Z,12.6582
2023-03-29T11:08:07.086Z,12.7803
2023-03-29T11:09:07.440Z,12.6937
2023-03-29T11:10:07.870Z,12.7367
2023-03-29T11:11:08.348Z,13.1513
2023-03-29T11:12:15.583Z,13.5266
2023-03-29T11:13:09.668Z,13.9641
2023-03-29T11:14:10.476Z,14.0557
2023-03-29T11:15:10.662Z,14.1934
2023-03-29T11:16:11.089Z,14.4723
2023-03-29T11:17:11.330Z,13.9975
2023-03-29T11:18:11.722Z,14.0499
2023-03-29T11:19:12.106Z,14.2191
2023-03-29T11:20:12.530Z,14.1566
2023-03-29T11:21:12.928Z,14.4193
2023-03-29T11:22:13.101Z,14.6794
2023-03-29T11:23:13.506Z,14.7386
2023-03-29T11:24:13.708Z,14.6225
2023-03-29T11:25:14.124Z,14.7492
2023-03-29T11:26:14.490Z,14.9667
2023-03-29T11:27:14.704Z,14.8091
2023-03-29T11:28:15.133Z,14.9350
2023-03-29T11:29:15.289Z,15.4655
2023-03-29T11:30:15.950Z,16.0694
2023-03-29T11:31:16.793Z,15.9955
2023-03-29T11:32:17.112Z,16.1394
2023-03-29T11:33:18.039Z,16.2051
2023-03-29T11:34:18.301Z,16.1604
2023-03-29T11:35:18.678Z,15.8562
2023-03-29T11:36:19.200Z,16.5767
2023-03-29T11:37:19.416Z,17.1789
2023-03-29T11:38:19.940Z,16.9155
2023-03-29T11:39:20.404Z,16.3393
2023-03-29T11:40:20.691Z,16.3141
2023-03-29T11:41:21.109Z,17.4346
2023-03-29T11:42:21.317Z,16.8998
2023-03-29T11:43:21.629Z,17.1339
2023-03-29T11:44:22.008Z,16.7512
2023-03-29T11:45:22.255Z,17.4784
2023-03-29T11:46:22.847Z,18.0728
2023-03-29T11:47:23.511Z,17.0750
2023-03-29T11:48:24.112Z,16.0416
2023-03-29T11:49:24.546Z,16.1884
2023-03-29T11:50:25.975Z,16.0764
2023-03-29T11:51:26.154Z,17.2329
2023-03-29T11:52:26.509Z,17.7199
2023-03-29T11:53:26.769Z,17.3096
2023-03-29T11:54:27.164Z,16.8385
2023-03-29T11:55:27.979Z,17.3770
2023-03-29T11:56:28.253Z,16.2726
2023-03-29T11:57:28.809Z,15.8644
2023-03-29T11:58:29.373Z,15.6934
2023-03-29T11:59:29.667Z,15.4934
2023-03-29T12:00:30.039Z,16.1578
2023-03-29T12:01:30.484Z,15.9029
2023-03-29T12:02:31.249Z,15.5908
2023-03-29T12:03:31.911Z,15.3028
2023-03-29T12:04:33.120Z,15.3023
2023-03-29T12:05:33.531Z,15.6909
2023-03-29T12:06:33.786Z,16.1772
2023-03-29T12:07:34.205Z,16.6435
2023-03-29T12:08:34.539Z,16.3385
2023-03-29T12:09:34.731Z,15.5768
2023-03-29T12:10:35.177Z,15.5031
2023-03-29T12:11:35.352Z,15.4128
2023-03-29T12:12:36.280Z,15.2269
2023-03-29T12:13:36.669Z,15.3972
2023-03-29T12:14:37.348Z,15.0596
2023-03-29T12:15:37.791Z,14.8744
2023-03-29T12:16:38.104Z,14.9418
2023-03-29T12:17:38.739Z,15.0048
2023-03-29T12:18:39.691Z,14.7401
2023-03-29T12:19:42.658Z,14.5727
2023-03-29T12:20:41.183Z,14.6624
2023-03-29T12:21:42.065Z,14.6589
2023-03-29T12:22:42.531Z,14.7549
2023-03-29T12:23:42.711Z,14.5308
2023-03-29T12:24:43.064Z,14.4656
2023-03-29T12:25:43.669Z,14.6077
2023-03-29T12:26:43.927Z,14.5265
2023-03-29T12:27:44.286Z,14.5048
2023-03-29T12:28:44.651Z,14.1394
2023-03-29T12:29:44.954Z,14.2152
2023-03-29T12:30:45.358Z,14.2088
2023-03-29T12:31:45.868Z,14.4943
2023-03-29T12:32:46.473Z,14.7283
2023-03-29T12:33:46.883Z,14.8762
2023-03-29T12:34:47.226Z,14.8878
2023-03-29T12:35:47.535Z,14.7716
2023-03-29T12:36:47.902Z,14.5151
2023-03-29T12:37:48.140Z,14.4882
2023-03-29T12:38:48.486Z,14.4560
2023-03-29T12:39:48.898Z,14.3975
2023-03-29T12:40:49.260Z,14.1392
2023-03-29T12:41:49.584Z,14.6382
2023-03-29T12:42:49.858Z,15.2540
2023-03-29T12:43:50.317Z,15.6778
2023-03-29T12:44:50.866Z,15.5044
2023-03-29T12:45:51.187Z,15.3091
2023-03-29T12:46:52.293Z,15.4135
2023-03-29T12:47:52.763Z,14.9230
2023-03-29T12:48:53.207Z,16.0035
2023-03-29T12:49:53.825Z,16.4972
2023-03-29T12:50:54.051Z,17.3867
2023-03-29T12:51:54.454Z,16.7241
2023-03-29T12:52:54.923Z,15.7565
2023-03-29T12:53:55.115Z,16.1655
2023-03-29T12:54:55.465Z,15.9478
2023-03-29T12:55:55.921Z,15.5432
2023-03-29T12:56:56.685Z,14.9151
2023-03-29T12:57:57.024Z,14.6357
2023-03-29T12:58:57.241Z,14.1257
2023-03-29T12:59:57.662Z,14.6599
2023-03-29T13:00:58.210Z,14.8899
2023-03-29T13:01:58.917Z,13.9916
2023-03-29T13:02:59.540Z,14.6317
2023-03-29T13:04:00.268Z,14.1971
2023-03-29T13:05:00.815Z,14.1236
2023-03-29T13:06:01.847Z,14.0406
2023-03-29T13:07:01.793Z,14.5082
2023-03-29T13:08:02.223Z,14.1108
2023-03-29T13:09:02.768Z,14.8214
2023-03-29T13:10:03.330Z,14.8381
2023-03-29T13:11:03.976Z,15.2769
2023-03-29T13:12:04.454Z,15.4985
2023-03-29T13:13:04.962Z,15.4874
2023-03-29T13:14:05.302Z,14.8722
2023-03-29T13:15:05.745Z,16.0522
2023-03-29T13:16:06.497Z,16.7663
2023-03-29T13:17:17.748Z,16.5989